Flight Track Log - Related Links

Times and Time Zones

All times are in EDT time to prevent confusion due to time zone crossing. See the SWA1092 flight status page for this flight to view local times or setup timezone preferences in your user account.

Time Position Orientation Groundspeed Altitude Reporting Facility
EDT Latitude Longitude Course Direction KTS MPH feet Rate Location/Type
Tue 02:01:36 PM 33.4333 -111.9833 90° East 176 203 1,800  Level Phoenix TRACON
Tue 02:02:54 PM 33.4333 -111.9000 90° East 249 287 3,900 2,174 Climbing Phoenix TRACON
Tue 02:03:54 PM 33.4667 -111.8167 64° Northeast 283 326 6,800 2,922 Climbing Phoenix TRACON
Tue 02:04:49 PM 33.5333 -111.7667 32° Northeast 303 349 9,500 2,972 Climbing Phoenix TRACON
Tue 02:05:43 PM 33.6000 -111.7333 23° Northeast 316 364 12,200 2,512 Climbing Phoenix TRACON
Tue 02:06:15 PM 33.6325 -111.7553 331° Northwest 315 362 13,100 1,979 Climbing Albuquerque Center
Tue 02:07:17 PM 33.6872 -111.8444 306° West 333 383 15,300 2,081 Climbing Albuquerque Center
Tue 02:08:19 PM 33.7508 -111.9353 310° West 349 402 17,400 2,371 Climbing Albuquerque Center
Tue 02:09:21 PM 33.8408 -112.0422 315° West 377 434 20,200 2,323 Climbing Albuquerque Center
Tue 02:10:23 PM 33.9189 -112.1306 317° Northwest 380 437 22,200 1,790 Climbing Albuquerque Center
Tue 02:11:25 PM 34.0000 -112.2225 317° Northwest 394 453 23,900 1,742 Climbing Albuquerque Center
Tue 02:12:27 PM 34.0839 -112.3153 318° Northwest 404 465 25,800 1,707 Climbing Albuquerque Center
Tue 02:13:28 PM 34.1669 -112.4103 317° Northwest 408 470 27,400 1,073 Climbing Albuquerque Center
Tue 02:14:30 PM 34.2561 -112.5069 318° Northwest 428 493 28,000 290 Climbing Albuquerque Center
Tue 02:15:32 PM 34.3467 -112.6086 317° Northwest 440 506 28,000  Level Albuquerque Center
Tue 02:16:34 PM 34.4361 -112.7128 316° Northwest 445 512 28,000  Level Albuquerque Center
Tue 02:17:36 PM 34.5447 -112.8331 318° Northwest 452 520 28,000  Level Albuquerque Center
Tue 02:18:38 PM 34.6358 -112.9381 317° Northwest 453 521 28,000  Level Albuquerque Center
Tue 02:19:40 PM 34.7256 -113.0408 317° Northwest 448 516 28,000  Level Albuquerque Center
Tue 02:20:41 PM 34.8133 -113.1414 317° Northwest 439 505 28,000  Level Albuquerque Center
Tue 02:21:43 PM 34.9019 -113.2425 317° Northwest 437 503 28,000  Level Albuquerque Center
Tue 02:22:45 PM 35.0006 -113.3719 313° West 438 504 28,000  Level Albuquerque Center
Tue 02:23:47 PM 35.0589 -113.4997 299° West 433 498 28,000  Level Albuquerque Center
Tue 02:24:49 PM 35.1181 -113.6269 300° West 431 496 28,000 -293 Level Albuquerque Center
Tue 02:25:50 PM 35.1769 -113.7533 300° West 431 496 27,400 -1,366 Descending Albuquerque Center
Tue 02:26:52 PM 35.2297 -113.8694 299° West 401 461 25,200 -2,081 Descending Albuquerque Center
Tue 02:27:54 PM 35.2942 -113.9681 309° West 383 441 23,100 -2,163 Descending Albuquerque Center
Tue 02:29:19 PM 35.4200 -114.0831 323° Northwest 368 423 19,900 -2,204 Descending Los Angeles Center
Tue 02:30:21 PM 35.5031 -114.1606 323° Northwest 352 405 17,700 -2,053 Descending Los Angeles Center
Tue 02:31:13 PM 35.5717 -114.2217 324° Northwest 352 405 16,000 -1,902 Descending Los Angeles Center
Tue 02:31:43 PM 35.6047 -114.2531 322° Northwest 342 394 15,100 -1,644 Descending Los Angeles Center
Tue 02:32:26 PM 35.6447 -114.2917 322° Northwest 330 380 14,000 -1,714 Descending Los Angeles Center
Tue 02:33:28 PM 35.7294 -114.3706 323° Northwest 319 367 12,100 -1,645 Descending Los Angeles Center
Tue 02:34:30 PM 35.7981 -114.4344 323° Northwest 311 358 10,600 -1,258 Descending Los Angeles Center
Tue 02:35:32 PM 35.8594 -114.5019 318° Northwest 299 344 9,500 -919 Descending Los Angeles Center
Tue 02:36:34 PM 35.9183 -114.5631 320° Northwest 283 326 8,700 -677 Descending Los Angeles Center
Tue 02:37:36 PM 35.9678 -114.6372 309° West 278 320 8,100 -336 Descending Los Angeles Center
Tue 02:38:39 PM 35.9986 -114.7297 292° West 286 329 8,000 -358 Descending Los Angeles Center
Tue 02:39:50 PM 36.0369 -114.8406 293° West 244 281 7,300 -838 Descending Los Angeles Center
Tue 02:40:55 PM 36.0567 -114.8975 293° West 239 275 6,100 -1,388 Descending Los Angeles Center
Tue 02:41:51 PM 36.0733 -114.9775 284° West 188 216 4,500 -1,385 Descending Los Angeles Center
Tue 02:42:52 PM 36.0739 -115.0386 271° West 171 197 3,400 -885 Descending Los Angeles Center
Tue 02:43:53 PM 36.0731 -115.0947 269° West 154 177 2,700 -500 Descending Los Angeles Center
Tue 02:45:16 PM 36.0744 -115.1492 272° West 151 174 2,200 -361 Descending Los Angeles Center

Login

Don't have an account? Register now (free) for customized features, flight alerts, and more!